createdAt,value
2023-03-15T00:00:24.496Z,25.65
2023-03-15T00:01:24.493Z,25.12
2023-03-15T00:02:24.542Z,25.66
2023-03-15T00:03:24.636Z,25.77
2023-03-15T00:04:24.652Z,25.98
2023-03-15T00:05:24.552Z,26.03
2023-03-15T00:06:24.532Z,25.93
2023-03-15T00:07:24.542Z,25.94
2023-03-15T00:09:24.549Z,25.87
2023-03-15T00:10:24.571Z,25.73
2023-03-15T00:11:24.570Z,25.65
2023-03-15T00:12:24.573Z,25.53
2023-03-15T00:13:24.562Z,25.12
2023-03-15T00:14:24.598Z,25.79
2023-03-15T00:15:24.597Z,25.66
2023-03-15T00:16:24.601Z,25.11
2023-03-15T00:17:24.570Z,25.25
2023-03-15T00:18:24.571Z,25.18
2023-03-15T00:19:24.601Z,25.24
2023-03-15T00:20:24.590Z,24.91
2023-03-15T00:21:24.591Z,25.21
2023-03-15T00:22:24.595Z,25.74
2023-03-15T00:23:24.604Z,25.43
2023-03-15T00:24:25.240Z,25.84
2023-03-15T00:25:24.595Z,25.96
2023-03-15T00:26:24.640Z,25.96
2023-03-15T00:27:24.583Z,25.85
2023-03-15T00:28:24.660Z,25.74
2023-03-15T00:29:24.609Z,25.74
2023-03-15T00:30:24.595Z,25.62
2023-03-15T00:31:24.610Z,25.78
2023-03-15T00:32:24.668Z,25.84
2023-03-15T00:33:24.590Z,25.69
2023-03-15T00:34:24.644Z,25.87
2023-03-15T00:37:24.642Z,25.49
2023-03-15T00:38:24.586Z,25.63
2023-03-15T00:39:24.630Z,25.54
2023-03-15T00:40:24.623Z,25.59
2023-03-15T00:41:24.617Z,25.53
2023-03-15T00:42:24.636Z,25.31
2023-03-15T00:43:24.697Z,25.28
2023-03-15T00:44:24.707Z,25.08
2023-03-15T00:45:24.667Z,24.98
2023-03-15T00:46:24.672Z,25.32
2023-03-15T00:47:24.654Z,25.43
2023-03-15T00:48:24.639Z,25.66
2023-03-15T00:49:24.638Z,25.14
2023-03-15T00:50:24.636Z,25.42
2023-03-15T00:51:24.676Z,25.50
2023-03-15T00:52:24.657Z,25.36
2023-03-15T00:53:24.662Z,25.63
2023-03-15T00:54:24.672Z,25.83
2023-03-15T00:55:24.685Z,25.69
2023-03-15T00:56:24.687Z,25.62
2023-03-15T00:57:24.656Z,25.67
2023-03-15T00:58:26.545Z,25.69
2023-03-15T00:59:24.655Z,25.26
2023-03-15T01:00:24.836Z,25.53
2023-03-15T01:01:24.727Z,25.33
2023-03-15T01:02:24.637Z,25.46
2023-03-15T01:03:24.613Z,25.46
2023-03-15T01:04:24.640Z,25.40
2023-03-15T01:05:24.593Z,25.67
2023-03-15T01:06:24.626Z,25.60
2023-03-15T01:07:24.604Z,25.04
2023-03-15T01:08:24.575Z,25.46
2023-03-15T01:09:24.631Z,25.50
2023-03-15T01:10:24.577Z,25.16
2023-03-15T01:11:24.610Z,25.19
2023-03-15T01:12:24.532Z,25.48
2023-03-15T01:13:24.548Z,25.54
2023-03-15T01:14:24.552Z,25.12
2023-03-15T01:15:24.563Z,25.59
2023-03-15T01:16:24.542Z,25.63
2023-03-15T01:17:24.519Z,25.66
2023-03-15T01:18:24.486Z,25.42
2023-03-15T01:19:24.497Z,25.47
2023-03-15T01:20:24.509Z,24.96
2023-03-15T01:21:24.517Z,25.31
2023-03-15T01:22:24.493Z,25.08
2023-03-15T01:23:24.486Z,25.61
2023-03-15T01:24:24.482Z,25.49
2023-03-15T01:25:24.474Z,25.46
2023-03-15T01:26:24.455Z,25.44
2023-03-15T01:27:24.437Z,25.09
2023-03-15T01:28:24.426Z,25.11
2023-03-15T01:29:24.459Z,25.33
2023-03-15T01:30:24.444Z,25.14
2023-03-15T01:31:24.437Z,25.14
2023-03-15T01:32:24.418Z,25.01
2023-03-15T01:33:24.387Z,25.18
2023-03-15T01:34:24.387Z,25.08
2023-03-15T01:35:24.410Z,25.02
2023-03-15T01:36:24.398Z,24.57
2023-03-15T01:37:24.387Z,24.95
2023-03-15T01:38:24.359Z,25.14
2023-03-15T01:39:24.345Z,25.02
2023-03-15T01:40:24.372Z,25.01
2023-03-15T01:41:24.333Z,25.04
2023-03-15T01:42:24.360Z,25.20
2023-03-15T01:43:24.342Z,24.66
2023-03-15T01:44:24.348Z,24.71
2023-03-15T01:45:24.314Z,25.14
2023-03-15T01:46:24.348Z,24.98
2023-03-15T01:47:24.318Z,24.81
2023-03-15T01:48:24.328Z,24.67
2023-03-15T01:49:24.300Z,24.76
2023-03-15T01:50:24.305Z,24.62
2023-03-15T01:51:24.260Z,25.14
2023-03-15T01:52:24.279Z,24.88
2023-03-15T01:53:24.245Z,24.77
2023-03-15T01:54:24.279Z,25.06
2023-03-15T01:55:24.274Z,24.74
2023-03-15T01:56:24.253Z,24.83
2023-03-15T01:57:24.238Z,24.68
2023-03-15T01:58:24.213Z,25.23
2023-03-15T01:59:24.224Z,24.71
2023-03-15T02:00:24.211Z,25.19
2023-03-15T02:01:24.208Z,24.82
2023-03-15T02:02:24.219Z,24.98
2023-03-15T02:03:24.176Z,24.75
2023-03-15T02:04:24.179Z,24.74
2023-03-15T02:05:24.169Z,24.94
2023-03-15T02:06:24.173Z,24.78
2023-03-15T02:07:24.145Z,24.60
2023-03-15T02:08:24.147Z,24.60
2023-03-15T02:09:24.114Z,24.49
2023-03-15T02:10:24.122Z,24.80
2023-03-15T02:11:24.149Z,24.74
2023-03-15T02:12:24.118Z,24.98
2023-03-15T02:13:24.116Z,24.85
2023-03-15T02:14:24.116Z,24.82
2023-03-15T02:15:24.063Z,25.04
2023-03-15T02:16:24.150Z,25.01
2023-03-15T02:17:24.082Z,24.65
2023-03-15T02:18:24.069Z,24.61
2023-03-15T02:20:24.031Z,24.43
2023-03-15T02:29:23.968Z,24.71
2023-03-15T02:30:23.951Z,24.50
2023-03-15T02:31:23.976Z,24.74
2023-03-15T02:32:23.993Z,24.78
2023-03-15T02:33:23.939Z,24.83
2023-03-15T02:34:23.955Z,24.57
2023-03-15T02:35:23.920Z,24.74
2023-03-15T02:36:23.905Z,24.58
2023-03-15T02:37:23.907Z,24.39
2023-03-15T02:38:23.909Z,24.26
2023-03-15T02:39:23.910Z,24.29
2023-03-15T02:40:23.882Z,24.64
2023-03-15T02:41:23.863Z,24.15
2023-03-15T02:42:23.873Z,23.68
2023-03-15T02:43:23.838Z,24.15
2023-03-15T02:44:23.849Z,24.18
2023-03-15T02:45:23.875Z,24.59
2023-03-15T02:46:23.922Z,24.40
2023-03-15T02:47:23.861Z,24.49
2023-03-15T02:48:23.822Z,23.67
2023-03-15T02:49:23.832Z,24.21
2023-03-15T02:50:23.829Z,24.12
2023-03-15T02:51:23.800Z,24.08
2023-03-15T02:52:23.784Z,23.92
2023-03-15T02:53:23.812Z,24.03
2023-03-15T02:54:23.825Z,23.78
2023-03-15T02:55:23.782Z,23.92
2023-03-15T02:56:23.771Z,23.53
2023-03-15T02:57:23.737Z,23.40
2023-03-15T02:58:23.764Z,24.19
2023-03-15T02:59:23.752Z,23.60
2023-03-15T03:00:23.758Z,23.78
2023-03-15T03:01:23.841Z,23.94
2023-03-15T03:02:23.829Z,23.40
2023-03-15T03:03:23.749Z,23.30
2023-03-15T03:04:23.759Z,23.82
2023-03-15T03:05:23.749Z,23.99
2023-03-15T03:06:23.735Z,23.95
2023-03-15T03:07:23.743Z,23.81
2023-03-15T03:08:23.717Z,24.11
2023-03-15T03:09:23.707Z,24.15
2023-03-15T03:10:23.690Z,24.12
2023-03-15T03:11:23.656Z,23.99
2023-03-15T03:12:23.644Z,23.84
2023-03-15T03:13:23.649Z,24.17
2023-03-15T03:14:23.646Z,24.24
2023-03-15T03:15:23.639Z,23.90
2023-03-15T03:16:23.656Z,23.88
2023-03-15T03:17:23.628Z,23.86
2023-03-15T03:18:23.602Z,23.84
2023-03-15T03:19:23.598Z,24.12
2023-03-15T03:20:23.606Z,24.34
2023-03-15T03:21:23.602Z,24.58
2023-03-15T03:22:23.610Z,24.74
2023-03-15T03:23:23.570Z,24.30
2023-03-15T03:24:23.667Z,24.40
2023-03-15T03:25:23.545Z,24.10
2023-03-15T03:26:23.576Z,24.44
2023-03-15T03:27:23.542Z,24.19
2023-03-15T03:28:23.561Z,24.29
2023-03-15T03:29:23.544Z,24.40
2023-03-15T04:10:23.262Z,24.68
2023-03-15T04:11:23.256Z,24.71
2023-03-15T04:12:23.326Z,24.53
2023-03-15T04:13:23.233Z,24.58
2023-03-15T04:14:23.239Z,24.62
2023-03-15T04:15:23.238Z,24.58
2023-03-15T04:16:23.297Z,24.57
2023-03-15T04:17:23.229Z,24.58
2023-03-15T04:18:23.223Z,24.54
2023-03-15T04:19:23.253Z,24.60
2023-03-15T04:20:23.221Z,24.58
2023-03-15T04:21:23.212Z,24.49
2023-03-15T04:22:23.269Z,24.51
2023-03-15T04:23:23.287Z,24.35
2023-03-15T04:24:23.311Z,24.40
2023-03-15T04:25:23.356Z,24.45
2023-03-15T04:26:23.421Z,24.45
2023-03-15T04:27:23.467Z,24.48
2023-03-15T04:28:23.494Z,24.46
2023-03-15T04:29:23.581Z,24.51
2023-03-15T04:30:23.610Z,24.45
2023-03-15T06:46:34.608Z,19.82
2023-03-15T09:44:31.667Z,17.83
2023-03-15T09:45:32.697Z,18.14
2023-03-15T09:46:31.814Z,17.91
2023-03-15T09:47:31.794Z,17.81
2023-03-15T09:48:31.787Z,17.93
2023-03-15T09:49:31.839Z,17.00
2023-03-15T09:50:31.916Z,17.28
2023-03-15T09:51:31.918Z,18.03
2023-03-15T09:52:32.001Z,16.65
2023-03-15T09:53:32.197Z,18.59
2023-03-15T09:54:32.068Z,17.99
2023-03-15T09:55:32.143Z,20.66
2023-03-15T09:56:32.162Z,19.23
2023-03-15T09:57:32.189Z,18.62
2023-03-15T09:58:32.772Z,18.75
2023-03-15T09:59:32.313Z,18.82
2023-03-15T10:00:32.390Z,18.86
2023-03-15T10:01:32.468Z,18.79
2023-03-15T10:02:32.402Z,18.85
2023-03-15T10:03:32.740Z,17.90
2023-03-15T10:04:32.466Z,17.82
2023-03-15T10:05:32.536Z,18.31
2023-03-15T10:06:32.577Z,18.25
2023-03-15T10:07:32.588Z,16.82
2023-03-15T10:08:32.697Z,17.89
2023-03-15T10:09:32.657Z,16.39
2023-03-15T10:10:32.722Z,16.30
2023-03-15T10:11:32.809Z,16.04
2023-03-15T10:12:32.817Z,15.17
2023-03-15T10:13:32.926Z,14.99
2023-03-15T10:14:33.005Z,16.16
2023-03-15T10:15:33.038Z,16.72
2023-03-15T10:16:33.189Z,16.24
2023-03-15T10:17:33.131Z,16.06
2023-03-15T10:18:33.237Z,16.74
2023-03-15T10:19:33.241Z,16.82
2023-03-15T10:20:33.280Z,16.55
2023-03-15T10:21:33.363Z,17.01
2023-03-15T10:22:33.386Z,16.82
2023-03-15T10:23:33.732Z,16.75
2023-03-15T10:24:33.528Z,17.01
2023-03-15T10:25:33.540Z,16.99
2023-03-15T10:26:33.590Z,17.12
2023-03-15T10:27:33.646Z,16.82
2023-03-15T10:28:37.053Z,15.73
2023-03-15T10:29:33.716Z,16.88
2023-03-15T10:30:33.655Z,16.21
2023-03-15T10:31:44.189Z,16.60
2023-03-15T10:32:34.727Z,16.85
2023-03-15T10:33:33.652Z,17.61
2023-03-15T10:34:33.667Z,16.27
2023-03-15T10:35:33.734Z,13.99
2023-03-15T10:36:33.682Z,13.05
2023-03-15T10:37:35.559Z,12.54
2023-03-15T10:38:33.705Z,12.41
2023-03-15T10:39:33.621Z,13.00
2023-03-15T10:40:33.686Z,11.99
2023-03-15T10:41:33.723Z,12.30
2023-03-15T10:42:33.601Z,12.92
2023-03-15T10:43:33.618Z,13.39
2023-03-15T10:44:33.674Z,12.17
2023-03-15T10:45:33.627Z,10.35
2023-03-15T10:46:33.720Z,13.27
2023-03-15T10:47:33.673Z,11.07
2023-03-15T10:48:33.690Z,11.01
2023-03-15T10:49:34.210Z,11.81
2023-03-15T10:50:33.759Z,11.30
2023-03-15T10:51:33.740Z,12.00
2023-03-15T10:52:33.767Z,12.53
2023-03-15T10:53:33.819Z,14.06
2023-03-15T10:54:34.226Z,15.65
2023-03-15T10:55:33.901Z,15.64
2023-03-15T10:56:33.910Z,15.97
2023-03-15T10:57:33.906Z,15.87
2023-03-15T10:58:34.223Z,16.15
2023-03-15T10:59:33.999Z,17.43
2023-03-15T11:00:34.052Z,17.20
2023-03-15T11:01:34.179Z,16.80
2023-03-15T11:02:34.162Z,16.33
2023-03-15T11:03:34.109Z,16.73
2023-03-15T11:04:34.496Z,17.07
2023-03-15T11:05:34.096Z,17.02
2023-03-15T11:06:34.112Z,16.55
2023-03-15T11:07:34.190Z,16.57
2023-03-15T11:08:34.239Z,16.35
2023-03-15T11:09:34.296Z,15.99
2023-03-15T11:10:34.349Z,15.16
2023-03-15T11:11:34.405Z,13.73
2023-03-15T11:12:34.400Z,15.08
2023-03-15T11:13:34.453Z,15.42
2023-03-15T11:14:34.492Z,15.88
2023-03-15T11:15:34.490Z,15.77
2023-03-15T11:16:34.563Z,15.70
2023-03-15T11:17:34.519Z,15.46
2023-03-15T11:19:34.521Z,14.02
2023-03-15T11:20:34.626Z,15.30
2023-03-15T11:21:34.622Z,15.30
2023-03-15T11:22:34.621Z,15.07
2023-03-15T11:23:34.694Z,15.04
2023-03-15T11:24:34.768Z,14.88
2023-03-15T11:25:34.859Z,15.01
2023-03-15T11:26:34.867Z,14.89
2023-03-15T11:27:34.918Z,14.91
2023-03-15T11:28:34.954Z,14.49
2023-03-15T11:29:35.028Z,14.87
2023-03-15T11:30:35.105Z,14.91
2023-03-15T11:31:35.259Z,14.87
2023-03-15T11:32:35.226Z,15.14
2023-03-15T11:33:37.269Z,15.07
2023-03-15T11:34:35.707Z,15.01
2023-03-15T11:35:35.404Z,15.11
2023-03-15T11:36:35.377Z,15.13
2023-03-15T11:37:35.429Z,14.82
2023-03-15T11:38:35.471Z,15.28
2023-03-15T11:39:35.728Z,15.22
2023-03-15T11:40:35.571Z,15.80
2023-03-15T11:41:35.586Z,15.63
2023-03-15T11:42:35.663Z,15.42
2023-03-15T11:43:35.710Z,15.42
2023-03-15T11:44:35.700Z,15.24
2023-03-15T11:45:35.813Z,15.55
2023-03-15T11:46:35.715Z,15.39
2023-03-15T11:47:35.803Z,15.71
2023-03-15T11:48:35.819Z,15.36
2023-03-15T11:49:36.221Z,15.57
2023-03-15T11:50:35.897Z,15.27
2023-03-15T11:51:35.901Z,15.29
2023-03-15T11:52:35.956Z,15.50
2023-03-15T11:53:35.966Z,15.33
2023-03-15T11:54:36.052Z,15.32
2023-03-15T11:55:36.030Z,15.41
2023-03-15T11:56:36.079Z,15.35
2023-03-15T11:57:36.183Z,15.41
2023-03-15T11:58:36.183Z,15.29
2023-03-15T11:59:36.314Z,15.07
2023-03-15T12:00:36.199Z,15.30
2023-03-15T12:01:36.244Z,15.30
2023-03-15T12:02:36.325Z,14.54
2023-03-15T12:03:36.326Z,15.25
2023-03-15T12:04:36.344Z,15.13
2023-03-15T12:05:36.357Z,15.01
2023-03-15T12:06:36.405Z,15.33
2023-03-15T12:07:36.381Z,15.42
2023-03-15T12:08:36.432Z,15.48
2023-03-15T12:09:36.517Z,15.45
2023-03-15T12:10:36.556Z,15.42
2023-03-15T12:11:36.570Z,15.60
2023-03-15T12:12:36.573Z,15.43
2023-03-15T12:13:36.617Z,15.28
2023-03-15T12:14:36.629Z,15.22
2023-03-15T12:15:36.686Z,15.17
2023-03-15T12:16:36.733Z,15.26
2023-03-15T12:17:37.695Z,15.11
2023-03-15T12:18:36.766Z,15.26
2023-03-15T12:19:36.833Z,15.19
2023-03-15T12:20:36.833Z,15.28
2023-03-15T12:21:36.820Z,15.14
2023-03-15T12:22:36.880Z,15.14
2023-03-15T12:23:36.901Z,15.11
2023-03-15T12:24:37.082Z,15.12
2023-03-15T12:25:45.381Z,15.46
2023-03-15T12:26:38.022Z,15.26
2023-03-15T12:27:36.941Z,15.06
2023-03-15T12:28:36.971Z,15.09
2023-03-15T12:29:37.290Z,15.27
2023-03-15T12:30:36.989Z,15.38
2023-03-15T12:31:36.963Z,14.86
2023-03-15T12:32:36.940Z,15.39
2023-03-15T12:33:36.939Z,15.19
2023-03-15T12:34:37.332Z,15.24
2023-03-15T12:35:36.912Z,15.30
2023-03-15T12:36:36.931Z,15.42
2023-03-15T12:37:36.925Z,15.42
2023-03-15T12:38:36.999Z,15.46
2023-03-15T12:39:37.019Z,15.52
2023-03-15T12:40:37.071Z,15.52
2023-03-15T12:41:37.114Z,15.58
2023-03-15T12:42:37.108Z,15.56
2023-03-15T12:43:37.180Z,15.61
2023-03-15T12:44:37.190Z,15.64
2023-03-15T12:45:37.675Z,15.66
2023-03-15T12:46:37.247Z,15.72
2023-03-15T12:47:37.271Z,15.76
2023-03-15T12:48:37.308Z,15.79
2023-03-15T12:49:37.316Z,15.82
2023-03-15T12:50:37.381Z,15.85
2023-03-15T12:51:37.411Z,15.90
2023-03-15T12:52:37.442Z,15.96
2023-03-15T12:53:37.452Z,15.95
2023-03-15T12:54:37.527Z,15.96
2023-03-15T12:55:37.531Z,15.93
2023-03-15T12:56:37.583Z,16.05
2023-03-15T12:57:37.619Z,16.04
2023-03-15T12:58:37.649Z,16.07
2023-03-15T12:59:37.670Z,16.04
2023-03-15T13:00:37.725Z,15.99
2023-03-15T13:01:37.762Z,16.13
2023-03-15T13:02:43.907Z,16.13
2023-03-15T13:03:38.869Z,16.17
2023-03-15T13:04:37.765Z,16.16
2023-03-15T13:05:37.739Z,16.16
2023-03-15T13:06:37.757Z,16.21
2023-03-15T13:07:50.648Z,16.24
2023-03-15T13:08:38.745Z,16.21
2023-03-15T13:09:37.765Z,16.22
2023-03-15T13:10:37.724Z,16.25
2023-03-15T13:11:37.757Z,16.30
2023-03-15T13:12:37.741Z,16.31
2023-03-15T13:13:37.722Z,16.31
2023-03-15T13:14:37.698Z,16.28
2023-03-15T13:15:39.674Z,16.42
2023-03-15T13:16:37.716Z,16.34
2023-03-15T13:17:37.731Z,16.42
2023-03-15T13:18:37.678Z,16.45
2023-03-15T13:19:37.667Z,16.43
2023-03-15T13:20:37.641Z,16.51
2023-03-15T13:21:37.643Z,16.51
2023-03-15T13:22:46.733Z,16.53
2023-03-15T13:23:38.634Z,16.54
2023-03-15T13:24:37.628Z,16.55
2023-03-15T13:25:37.603Z,16.57
2023-03-15T13:26:37.621Z,16.61
2023-03-15T13:27:37.602Z,16.63
2023-03-15T13:28:37.611Z,16.60
2023-03-15T13:29:37.596Z,16.73
2023-03-15T13:30:37.576Z,16.67
2023-03-15T13:31:37.622Z,16.72
2023-03-15T13:32:37.610Z,16.78
2023-03-15T13:33:37.551Z,16.73
2023-03-15T13:34:37.594Z,16.79
2023-03-15T13:35:37.567Z,16.78
2023-03-15T13:36:37.586Z,16.84
2023-03-15T13:37:37.602Z,16.81
2023-03-15T13:38:37.683Z,16.82
2023-03-15T13:39:37.678Z,16.84
2023-03-15T13:40:37.706Z,16.89
2023-03-15T13:41:37.746Z,16.92
2023-03-15T13:42:37.807Z,16.96
2023-03-15T13:43:37.852Z,16.96
2023-03-15T13:44:37.857Z,17.05
2023-03-15T13:45:37.907Z,17.02
2023-03-15T13:46:38.048Z,17.02
2023-03-15T13:47:38.038Z,17.11
2023-03-15T13:48:38.049Z,17.08
2023-03-15T13:49:38.281Z,17.08
2023-03-15T13:50:38.120Z,17.13
2023-03-15T13:51:38.156Z,17.25
2023-03-15T13:52:38.210Z,17.16
2023-03-15T13:53:49.150Z,17.10
2023-03-15T13:54:39.256Z,17.10
2023-03-15T13:56:48.790Z,17.14
2023-03-15T13:57:39.185Z,17.20
2023-03-15T13:58:38.170Z,17.20
2023-03-15T15:17:41.675Z,25.07
2023-03-15T15:18:41.732Z,25.04
2023-03-15T15:19:41.797Z,25.00
2023-03-15T15:20:41.854Z,24.93
2023-03-15T15:21:41.849Z,25.08
2023-03-15T15:22:41.902Z,24.85
2023-03-15T15:23:56.959Z,24.81
2023-03-15T15:24:42.960Z,24.70
2023-03-15T15:25:41.944Z,24.66
2023-03-15T15:26:41.934Z,24.67
2023-03-15T15:27:41.947Z,24.56
2023-03-15T15:28:41.901Z,24.44
2023-03-15T15:29:41.913Z,23.99
2023-03-15T15:30:41.929Z,24.40
2023-03-15T15:31:41.950Z,24.36
2023-03-15T15:32:41.928Z,24.29
2023-03-15T15:33:41.882Z,24.27
2023-03-15T15:34:41.906Z,24.29
2023-03-15T15:35:41.907Z,24.24
2023-03-15T15:36:41.889Z,24.20
2023-03-15T15:37:41.879Z,24.14
2023-03-15T15:38:41.859Z,24.13
2023-03-15T15:39:41.881Z,24.13
2023-03-15T15:40:41.887Z,24.03
2023-03-15T15:41:41.940Z,24.05
2023-03-15T15:42:42.019Z,24.03
2023-03-15T15:43:42.113Z,24.03
2023-03-15T15:44:42.124Z,23.99
2023-03-15T15:45:42.222Z,23.92
2023-03-15T15:46:42.136Z,23.95
2023-03-15T15:47:42.140Z,23.92
2023-03-15T15:48:42.185Z,23.93
2023-03-15T15:49:42.173Z,23.89
2023-03-15T15:50:42.253Z,23.86
2023-03-15T15:51:42.335Z,23.83
2023-03-15T15:52:42.376Z,23.82
2023-03-15T15:53:42.476Z,23.86
2023-03-15T15:54:42.551Z,23.75
2023-03-15T15:55:42.685Z,23.78
2023-03-15T15:56:42.757Z,23.73
2023-03-15T15:57:42.784Z,23.76
2023-03-15T15:58:42.880Z,23.79
2023-03-15T15:59:42.983Z,23.72
2023-03-15T16:00:43.111Z,23.68
2023-03-15T16:01:58.901Z,23.70
2023-03-15T16:02:44.144Z,23.72
2023-03-15T16:03:43.076Z,23.67
2023-03-15T16:04:43.073Z,23.69
2023-03-15T16:05:43.081Z,23.72
2023-03-15T16:06:43.363Z,23.60
2023-03-15T16:07:43.009Z,23.64
2023-03-15T16:08:43.058Z,23.54
2023-03-15T16:09:43.003Z,23.59
2023-03-15T16:10:43.000Z,23.57
2023-03-15T16:11:43.021Z,23.62
2023-03-15T16:12:43.021Z,23.49
2023-03-15T16:13:42.962Z,23.46
2023-03-15T16:14:42.999Z,23.54
2023-03-15T16:15:43.049Z,23.44
2023-03-15T16:16:42.944Z,23.29
2023-03-15T16:17:43.011Z,23.40
2023-03-15T16:18:43.122Z,23.40
2023-03-15T16:19:43.237Z,23.46
2023-03-15T16:20:43.322Z,23.40
2023-03-15T16:21:43.412Z,23.44
2023-03-15T16:22:43.504Z,23.46
2023-03-15T16:23:43.613Z,23.39
2023-03-15T16:24:43.662Z,23.33
2023-03-15T16:25:43.667Z,23.35
2023-03-15T16:26:43.687Z,23.33
2023-03-15T16:27:43.693Z,23.26
2023-03-15T16:28:43.669Z,23.26
2023-03-15T16:29:43.700Z,23.23
2023-03-15T16:30:46.493Z,23.23
2023-03-15T16:31:43.723Z,23.18
2023-03-15T16:32:45.009Z,23.24
2023-03-15T16:33:43.745Z,23.16
2023-03-15T16:34:43.691Z,23.14
2023-03-15T16:36:43.662Z,23.12
2023-03-15T16:37:43.710Z,23.15
2023-03-15T16:38:43.664Z,23.03
2023-03-15T16:39:43.670Z,22.98
2023-03-15T16:40:43.625Z,22.95
2023-03-15T16:41:43.634Z,22.95
2023-03-15T16:42:43.631Z,22.95
2023-03-15T16:43:43.642Z,22.91
2023-03-15T16:44:43.594Z,22.92
2023-03-15T16:45:43.633Z,22.94
2023-03-15T16:46:43.672Z,22.95
2023-03-15T16:47:43.627Z,22.80
2023-03-15T16:48:43.652Z,22.77
2023-03-15T16:49:43.594Z,22.92
2023-03-15T16:50:43.591Z,22.87
2023-03-15T16:51:43.607Z,22.77
2023-03-15T16:52:43.587Z,22.78
2023-03-15T16:53:43.562Z,22.78
2023-03-15T16:54:43.550Z,22.74
2023-03-15T16:55:43.580Z,22.87
2023-03-15T16:56:43.528Z,22.78
2023-03-15T16:57:43.566Z,22.77
2023-03-15T16:58:43.554Z,22.74
2023-03-15T16:59:43.558Z,22.83
2023-03-15T17:00:43.539Z,22.69
2023-03-15T17:01:43.535Z,22.70
2023-03-15T17:02:43.525Z,22.58
2023-03-15T17:03:43.516Z,22.46
2023-03-15T17:04:43.545Z,22.45
2023-03-15T17:05:43.489Z,22.22
2023-03-15T17:06:43.496Z,22.54
2023-03-15T17:07:43.474Z,22.58
2023-03-15T17:08:43.468Z,22.63
2023-03-15T17:09:43.473Z,22.41
2023-03-15T17:10:43.460Z,22.40
2023-03-15T17:11:43.451Z,22.54
2023-03-15T17:12:44.364Z,22.37
2023-03-15T17:13:43.456Z,22.38
2023-03-15T17:14:43.417Z,22.23
2023-03-15T17:15:43.409Z,22.49
2023-03-15T17:16:43.574Z,22.37
2023-03-15T17:17:43.427Z,22.41
2023-03-15T17:18:43.375Z,22.46
2023-03-15T17:19:43.411Z,22.50
2023-03-15T17:20:43.388Z,22.43
2023-03-15T17:21:43.440Z,22.46
2023-03-15T17:22:43.527Z,22.40
2023-03-15T17:23:43.530Z,21.67
2023-03-15T17:24:43.535Z,21.76
2023-03-15T17:25:43.534Z,22.13
2023-03-15T17:26:43.559Z,21.99
2023-03-15T17:27:43.605Z,22.02
2023-03-15T17:28:43.727Z,21.85
2023-03-15T17:29:43.622Z,22.11
2023-03-15T17:30:43.634Z,22.12
2023-03-15T17:31:43.746Z,21.97
2023-03-15T17:32:43.841Z,22.03
2023-03-15T17:33:43.697Z,21.82
2023-03-15T17:34:43.731Z,21.79
2023-03-15T17:35:43.765Z,21.91
2023-03-15T17:36:43.768Z,21.61
2023-03-15T17:37:43.823Z,21.99
2023-03-15T17:38:43.809Z,21.74
2023-03-15T17:39:43.843Z,21.59
2023-03-15T17:40:43.869Z,21.65
2023-03-15T17:41:43.905Z,21.32
2023-03-15T17:42:43.892Z,21.67
2023-03-15T17:43:43.931Z,21.45
2023-03-15T17:44:43.937Z,21.24
2023-03-15T17:45:43.985Z,21.38
2023-03-15T17:46:44.041Z,21.41
2023-03-15T17:47:43.999Z,21.54
2023-03-15T17:48:44.016Z,21.53
2023-03-15T17:49:44.019Z,21.19
2023-03-15T17:50:44.092Z,21.12
2023-03-15T17:51:44.142Z,21.32
2023-03-15T17:52:44.123Z,21.45
2023-03-15T17:53:44.154Z,21.21
2023-03-15T17:54:44.182Z,21.32
2023-03-15T17:55:44.174Z,21.82
2023-03-15T17:56:44.253Z,21.95
2023-03-15T17:57:53.958Z,21.89
2023-03-15T17:58:45.245Z,21.48
2023-03-15T17:59:44.233Z,21.33
2023-03-15T18:00:44.211Z,21.75
2023-03-15T18:01:44.184Z,21.66
2023-03-15T18:02:49.811Z,21.44
2023-03-15T18:03:45.232Z,21.80
2023-03-15T18:04:44.191Z,20.92
2023-03-15T18:05:44.169Z,21.13
2023-03-15T18:06:44.171Z,21.59
2023-03-15T18:07:57.785Z,21.53
2023-03-15T18:08:45.163Z,21.45
2023-03-15T18:09:44.196Z,20.95
2023-03-15T18:10:44.153Z,21.22
2023-03-15T18:11:44.151Z,21.24
2023-03-15T18:12:44.115Z,21.22
2023-03-15T18:13:44.111Z,21.13
2023-03-15T18:14:44.145Z,20.99
2023-03-15T18:15:44.098Z,21.17
2023-03-15T18:16:44.121Z,21.04
2023-03-15T18:17:44.108Z,21.16
2023-03-15T18:18:44.089Z,20.86
2023-03-15T18:19:44.070Z,21.42
2023-03-15T18:20:44.077Z,21.59
2023-03-15T18:21:44.081Z,21.30
2023-03-15T18:22:44.090Z,20.71
2023-03-15T18:23:44.053Z,21.34
2023-03-15T18:24:46.639Z,21.34
2023-03-15T18:25:44.096Z,21.19
2023-03-15T18:26:44.069Z,21.03
2023-03-15T18:27:44.027Z,21.57
2023-03-15T18:28:44.019Z,21.34
2023-03-15T18:29:44.014Z,20.89
2023-03-15T18:30:44.055Z,21.10
2023-03-15T18:31:44.048Z,21.28
2023-03-15T18:32:44.069Z,21.07
2023-03-15T18:33:44.004Z,21.33
2023-03-15T18:34:44.007Z,21.28
2023-03-15T18:35:44.043Z,21.11
2023-03-15T18:36:43.973Z,21.17
2023-03-15T18:37:43.960Z,21.51
2023-03-15T18:38:43.987Z,21.31
2023-03-15T18:39:43.944Z,21.37
2023-03-15T18:40:43.934Z,20.95
2023-03-15T18:41:43.951Z,21.37
2023-03-15T18:42:43.933Z,21.60
2023-03-15T18:43:43.932Z,21.61
2023-03-15T18:44:43.919Z,20.66
2023-03-15T18:45:43.918Z,20.88
2023-03-15T18:46:43.880Z,21.27
2023-03-15T18:47:43.909Z,21.20
2023-03-15T18:48:43.879Z,20.83
2023-03-15T18:49:43.864Z,21.20
2023-03-15T18:50:43.867Z,21.13
2023-03-15T18:51:43.889Z,21.30
2023-03-15T18:52:43.878Z,21.46
2023-03-15T18:53:43.877Z,21.20
2023-03-15T18:54:43.861Z,20.86
2023-03-15T18:55:43.860Z,21.02
2023-03-15T18:56:43.829Z,21.08
2023-03-15T18:57:43.819Z,21.25
2023-03-15T18:58:43.811Z,21.54
2023-03-15T18:59:43.828Z,21.13
2023-03-15T19:00:43.793Z,21.22
2023-03-15T19:01:43.815Z,21.32
2023-03-15T19:02:43.904Z,21.25
2023-03-15T19:03:43.782Z,21.24
2023-03-15T19:04:43.780Z,21.14
2023-03-15T19:05:43.777Z,21.51
2023-03-15T19:06:43.779Z,21.46
2023-03-15T19:07:44.799Z,21.45
2023-03-15T19:08:43.751Z,21.26
2023-03-15T19:09:43.746Z,21.16
2023-03-15T19:10:43.732Z,21.02
2023-03-15T19:11:43.730Z,21.11
2023-03-15T19:12:43.749Z,21.26
2023-03-15T19:13:43.727Z,20.73
2023-03-15T19:14:43.767Z,21.26
2023-03-15T19:15:43.773Z,21.34
2023-03-15T19:16:43.895Z,21.10
2023-03-15T19:17:43.867Z,20.94
2023-03-15T19:18:43.900Z,21.34
2023-03-15T22:43:51.746Z,20.59
2023-03-15T22:44:51.712Z,20.49
2023-03-15T22:45:51.758Z,20.70
2023-03-15T22:46:51.803Z,20.74
2023-03-15T22:47:51.870Z,20.53
2023-03-15T22:48:51.892Z,20.82
2023-03-15T22:49:51.979Z,20.51
2023-03-15T22:50:51.988Z,20.99
2023-03-15T22:51:52.024Z,20.85
2023-03-15T22:52:52.114Z,20.35
2023-03-15T22:53:52.140Z,20.73
2023-03-15T22:54:52.175Z,20.96
2023-03-15T22:55:52.239Z,20.79
2023-03-15T22:56:52.280Z,20.66
2023-03-15T22:57:52.357Z,20.70
2023-03-15T22:58:52.368Z,20.53
2023-03-15T22:59:52.410Z,20.44
2023-03-15T23:00:52.486Z,20.86
2023-03-15T23:01:52.555Z,20.62
2023-03-15T23:02:52.588Z,20.39
2023-03-15T23:03:52.609Z,20.74
2023-03-15T23:04:52.711Z,20.56
2023-03-15T23:05:52.703Z,20.61
2023-03-15T23:06:52.774Z,20.21
2023-03-15T23:07:52.816Z,20.24
2023-03-15T23:08:52.849Z,20.64
2023-03-15T23:09:52.890Z,20.80
2023-03-15T23:10:52.957Z,20.33
2023-03-15T23:11:53.019Z,20.68
2023-03-15T23:12:53.040Z,20.38
2023-03-15T23:13:53.094Z,20.32
2023-03-15T23:14:53.124Z,20.85
2023-03-15T23:15:53.168Z,20.62
2023-03-15T23:16:53.236Z,20.52
2023-03-15T23:17:53.315Z,20.47
2023-03-15T23:18:53.332Z,20.76
2023-03-15T23:19:53.391Z,20.53
2023-03-15T23:20:53.413Z,20.55
2023-03-15T23:21:53.460Z,20.32
2023-03-15T23:22:53.595Z,20.18
2023-03-15T23:23:53.563Z,20.45
2023-03-15T23:24:53.590Z,20.58
2023-03-15T23:25:53.641Z,20.76
2023-03-15T23:26:53.710Z,20.93
2023-03-15T23:27:53.765Z,20.50
2023-03-15T23:28:53.798Z,20.47
2023-03-15T23:29:55.274Z,20.51
2023-03-15T23:30:53.942Z,20.34
2023-03-15T23:31:53.949Z,20.45
2023-03-15T23:32:54.064Z,20.32
2023-03-15T23:33:54.157Z,20.58
2023-03-15T23:34:54.107Z,20.54
2023-03-15T23:35:54.219Z,20.68
2023-03-15T23:36:54.172Z,20.39
2023-03-15T23:37:54.225Z,20.30
2023-03-15T23:38:54.230Z,20.74
2023-03-15T23:39:55.058Z,20.56
2023-03-15T23:40:54.332Z,20.65
2023-03-15T23:41:54.400Z,20.65